Time;durP1;ratioP1;P1;durP2;ratioP2;P2;SDS_P1;SDS_P2;PMS_P1;PMS_P2;Temp;Humidity;BMP_temperature;BMP_pressure;BME280_temperature;BME280_humidity;BME280_pressure;Samples;Min_cycle;Max_cycle;Signal;HPM_P1;HPM_P2
2023/01/02 00:00:10;;;;;;;13.63;4.40;;;13.30;99.90;;;;;;5057211;28;20415;-64
2023/01/02 00:03:09;;;;;;;10.00;4.10;;;13.40;99.90;;;;;;5054639;28;20200;-64
2023/01/02 00:05:37;;;;;;;9.50;4.23;;;13.40;99.90;;;;;;5068535;28;20196;-64
2023/01/02 00:08:07;;;;;;;10.77;3.90;;;13.40;99.90;;;;;;5069215;28;20196;-65
2023/01/02 00:10:35;;;;;;;9.90;3.77;;;13.40;99.90;;;;;;5071824;28;20200;-64
2023/01/02 00:13:04;;;;;;;6.70;4.10;;;13.50;99.90;;;;;;5098606;28;20223;-65
2023/01/02 00:15:32;;;;;;;9.50;3.70;;;13.50;99.90;;;;;;5071463;28;20224;-63
2023/01/02 00:18:01;;;;;;;10.57;4.43;;;13.50;99.90;;;;;;5065406;28;20207;-64
2023/01/02 00:20:33;;;;;;;11.37;4.00;;;13.50;99.90;;;;;;5068361;28;20216;-63
2023/01/02 00:23:01;;;;;;;10.23;3.70;;;13.50;99.90;;;;;;5055950;28;20272;-63
2023/01/02 00:25:33;;;;;;;13.67;4.43;;;13.50;99.90;;;;;;5063068;28;20206;-63
2023/01/02 00:28:02;;;;;;;11.17;3.67;;;13.60;99.90;;;;;;5064627;28;20200;-64
2023/01/02 00:30:30;;;;;;;10.97;4.20;;;13.60;99.90;;;;;;5055829;28;20204;-63
2023/01/02 00:33:05;;;;;;;11.37;3.83;;;13.50;99.90;;;;;;5062737;28;20192;-64
2023/01/02 00:35:37;;;;;;;5.17;3.77;;;13.40;99.90;;;;;;5071546;28;20200;-63
2023/01/02 00:38:05;;;;;;;11.03;4.03;;;13.50;99.90;;;;;;5058889;28;21183;-64
2023/01/02 00:40:35;;;;;;;6.57;3.73;;;13.40;99.90;;;;;;5053916;28;20196;-63
2023/01/02 00:43:03;;;;;;;11.63;3.60;;;13.40;99.90;;;;;;5061022;28;20221;-63
2023/01/02 00:45:32;;;;;;;14.80;4.13;;;13.40;99.90;;;;;;5068932;28;20204;-64
2023/01/02 00:48:00;;;;;;;11.23;4.27;;;13.40;99.90;;;;;;5074982;28;20214;-63
2023/01/02 00:50:28;;;;;;;11.93;4.20;;;13.40;99.90;;;;;;5063096;28;20201;-63
2023/01/02 00:52:56;;;;;;;8.87;3.70;;;13.40;99.90;;;;;;5063241;28;20199;-63
2023/01/02 00:55:25;;;;;;;10.57;3.67;;;13.40;99.90;;;;;;5062241;28;20196;-62
2023/01/02 00:57:55;;;;;;;10.63;3.80;;;13.40;99.90;;;;;;5071926;28;20204;-63
2023/01/02 01:00:23;;;;;;;4.03;3.60;;;13.40;99.90;;;;;;5065335;28;20196;-63
2023/01/02 01:02:55;;;;;;;11.17;3.90;;;13.30;99.90;;;;;;5061027;28;20192;-63
2023/01/02 01:05:24;;;;;;;9.60;3.73;;;13.30;99.90;;;;;;5068024;28;20257;-64
2023/01/02 01:07:53;;;;;;;9.80;4.10;;;13.20;99.90;;;;;;5070829;28;20212;-64
2023/01/02 01:10:22;;;;;;;6.90;4.47;;;13.10;99.90;;;;;;5059281;28;20254;-65
2023/01/02 01:12:51;;;;;;;13.37;4.30;;;13.10;99.90;;;;;;5067592;28;20192;-64
2023/01/02 01:15:21;;;;;;;10.07;3.80;;;13.00;99.90;;;;;;5057912;28;20295;-64
2023/01/02 01:17:49;;;;;;;12.37;4.23;;;13.00;99.90;;;;;;5067082;28;20219;-64
2023/01/02 01:20:17;;;;;;;8.60;4.07;;;13.00;99.90;;;;;;5067372;28;20208;-64
2023/01/02 01:22:46;;;;;;;12.70;3.50;;;13.00;99.90;;;;;;5063553;28;20192;-64
2023/01/02 01:25:14;;;;;;;8.77;4.10;;;12.90;99.90;;;;;;5063153;28;20200;-64
2023/01/02 01:27:43;;;;;;;10.10;3.70;;;12.90;99.90;;;;;;5063524;28;20219;-64
2023/01/02 01:30:12;;;;;;;8.00;3.93;;;12.90;99.90;;;;;;5065627;28;20192;-65
2023/01/02 01:32:42;;;;;;;10.93;3.77;;;12.90;99.90;;;;;;5064396;28;20662;-64
2023/01/02 01:35:10;;;;;;;6.40;3.60;;;12.90;99.90;;;;;;5066910;28;20646;-64
2023/01/02 01:37:39;;;;;;;8.03;3.90;;;12.80;99.90;;;;;;5064081;28;20441;-64
2023/01/02 01:40:08;;;;;;;8.73;3.50;;;12.80;99.90;;;;;;5063295;28;20284;-65
2023/01/02 01:42:36;;;;;;;8.37;3.50;;;12.80;99.90;;;;;;5101036;28;20192;-64
2023/01/02 01:45:13;;;;;;;6.73;3.80;;;12.80;99.90;;;;;;5071193;28;20207;-64
2023/01/02 01:47:47;;;;;;;6.43;4.03;;;12.80;99.90;;;;;;5067656;28;20539;-64
2023/01/02 01:50:19;;;;;;;8.10;3.67;;;12.80;99.90;;;;;;5072839;28;20227;-65
2023/01/02 01:52:53;;;;;;;6.60;3.30;;;12.80;99.90;;;;;;5068198;28;20706;-64
2023/01/02 01:55:26;;;;;;;9.27;3.80;;;12.80;99.90;;;;;;5065122;28;20213;-65
2023/01/02 01:57:57;;;;;;;5.53;3.17;;;12.80;99.90;;;;;;5097340;28;20204;-65
2023/01/02 02:00:26;;;;;;;10.07;4.00;;;12.80;99.90;;;;;;5062795;28;20200;-65
2023/01/02 02:03:01;;;;;;;10.77;3.90;;;12.70;99.90;;;;;;5066250;28;20192;-65
2023/01/02 02:05:31;;;;;;;10.60;4.50;;;12.70;99.90;;;;;;5066128;28;20230;-65
2023/01/02 02:08:06;;;;;;;8.67;3.27;;;12.70;99.90;;;;;;5063589;28;20224;-65
2023/01/02 02:10:36;;;;;;;12.80;4.00;;;12.70;99.90;;;;;;5058745;28;20709;-65
2023/01/02 02:13:04;;;;;;;11.90;3.77;;;12.70;99.90;;;;;;5057217;28;20207;-65
2023/01/02 02:15:48;;;;;;;9.93;3.77;;;12.60;99.90;;;;;;5066972;28;20255;-65
2023/01/02 02:18:34;;;;;;;6.70;3.97;;;12.60;99.90;;;;;;5065861;28;20200;-65
2023/01/02 02:21:11;;;;;;;14.43;3.93;;;12.50;99.90;;;;;;5084125;28;20724;-65
2023/01/02 02:24:07;;;;;;;9.10;3.97;;;12.50;99.90;;;;;;5062337;28;21155;-65
2023/01/02 02:26:56;;;;;;;9.03;3.93;;;12.50;99.90;;;;;;5065004;28;20211;-65
2023/01/02 02:30:06;;;;;;;12.80;4.40;;;12.40;99.90;;;;;;5065887;28;20189;-65
2023/01/02 02:33:11;;;;;;;8.73;3.77;;;12.40;99.90;;;;;;5078503;28;20227;-65
2023/01/02 02:35:49;;;;;;;5.43;3.80;;;12.40;99.90;;;;;;5079024;28;20591;-66
2023/01/02 02:38:27;;;;;;;7.13;3.93;;;12.40;99.90;;;;;;5063675;28;20223;-66
2023/01/02 02:41:04;;;;;;;9.97;3.90;;;12.40;99.90;;;;;;5066500;28;20192;-66
2023/01/02 02:43:47;;;;;;;8.60;4.10;;;12.40;99.90;;;;;;5064239;28;20200;-66
2023/01/02 02:46:21;;;;;;;8.23;3.80;;;12.40;99.90;;;;;;5063956;28;20204;-66
2023/01/02 02:48:59;;;;;;;7.23;4.13;;;12.40;99.90;;;;;;5086819;28;20214;-66
2023/01/02 02:51:36;;;;;;;5.90;3.80;;;12.30;99.90;;;;;;5069843;28;20634;-66
2023/01/02 02:54:12;;;;;;;8.57;4.47;;;12.30;99.90;;;;;;5044534;28;20208;-66
2023/01/02 02:56:43;;;;;;;6.17;4.00;;;12.30;99.90;;;;;;5067083;28;20219;-66
2023/01/02 02:59:12;;;;;;;10.20;4.20;;;12.30;99.90;;;;;;5062734;28;20647;-66
2023/01/02 03:01:40;;;;;;;12.97;4.40;;;12.30;99.90;;;;;;5067714;28;20192;-66
2023/01/02 03:04:17;;;;;;;11.40;4.07;;;12.20;99.90;;;;;;5072634;28;20200;-66
2023/01/02 03:07:01;;;;;;;10.13;4.93;;;12.20;99.90;;;;;;5058936;28;20418;-66
2023/01/02 03:09:43;;;;;;;9.43;4.30;;;12.20;99.90;;;;;;5066920;28;20558;-66
2023/01/02 03:12:24;;;;;;;8.77;4.40;;;12.20;99.90;;;;;;5067907;28;20198;-66
2023/01/02 03:14:59;;;;;;;12.70;4.63;;;12.20;99.90;;;;;;5058927;28;20200;-66
2023/01/02 03:17:34;;;;;;;9.37;4.40;;;12.20;99.90;;;;;;5069330;28;20328;-65
2023/01/02 03:20:09;;;;;;;9.27;4.67;;;12.20;99.90;;;;;;5085837;28;20207;-66
2023/01/02 03:22:41;;;;;;;11.43;4.43;;;12.20;99.90;;;;;;5068622;28;20299;-66
2023/01/02 03:25:11;;;;;;;13.30;5.00;;;12.20;99.90;;;;;;5065051;28;20198;-66
2023/01/02 03:27:43;;;;;;;10.30;4.50;;;12.10;99.90;;;;;;5083086;28;20215;-65
2023/01/02 03:30:17;;;;;;;9.70;4.50;;;12.20;99.90;;;;;;5063236;28;20646;-65
2023/01/02 03:32:50;;;;;;;13.63;4.57;;;12.20;99.90;;;;;;5062333;28;20196;-65
2023/01/02 03:35:25;;;;;;;9.50;4.73;;;12.20;99.90;;;;;;5066463;28;20255;-65
2023/01/02 03:37:57;;;;;;;7.80;4.20;;;12.20;99.90;;;;;;5062402;28;20192;-65
2023/01/02 03:40:32;;;;;;;12.70;4.93;;;12.10;99.90;;;;;;5070494;28;20207;-64
2023/01/02 03:43:04;;;;;;;9.60;4.53;;;12.20;99.90;;;;;;5061983;28;20207;-65
2023/01/02 03:45:37;;;;;;;12.37;4.27;;;12.20;99.90;;;;;;5072523;28;20195;-65
2023/01/02 03:48:13;;;;;;;11.07;5.07;;;12.20;99.90;;;;;;5068794;28;20674;-65
2023/01/02 03:50:47;;;;;;;12.83;4.70;;;12.20;99.90;;;;;;5062872;28;20593;-65
2023/01/02 03:53:16;;;;;;;7.63;4.27;;;12.20;99.90;;;;;;5080922;28;20283;-65
2023/01/02 03:55:51;;;;;;;7.50;4.13;;;12.20;99.90;;;;;;5066620;28;20206;-64
2023/01/02 03:58:27;;;;;;;10.63;4.10;;;12.20;99.90;;;;;;5066388;28;20217;-65
2023/01/02 04:01:03;;;;;;;9.67;4.63;;;12.20;99.90;;;;;;5069400;28;20202;-65
2023/01/02 04:03:38;;;;;;;10.20;4.37;;;12.30;99.90;;;;;;5062971;28;20344;-65
2023/01/02 04:06:13;;;;;;;10.63;4.13;;;12.20;99.90;;;;;;5086072;28;20194;-65
2023/01/02 04:08:46;;;;;;;8.33;4.00;;;12.20;99.90;;;;;;5059735;28;20242;-65
2023/01/02 04:11:17;;;;;;;9.70;4.53;;;12.20;99.90;;;;;;5082757;28;20196;-65
2023/01/02 04:13:50;;;;;;;8.73;4.33;;;12.20;99.90;;;;;;5077078;28;20204;-66
2023/01/02 04:16:22;;;;;;;9.23;4.27;;;12.20;99.90;;;;;;5068230;28;20575;-66
2023/01/02 04:18:55;;;;;;;9.60;4.27;;;12.20;99.90;;;;;;5067909;28;20192;-66
2023/01/02 04:21:29;;;;;;;6.70;4.37;;;12.10;99.90;;;;;;5066792;28;20207;-67
2023/01/02 04:24:00;;;;;;;8.93;4.60;;;12.10;99.90;;;;;;5066775;28;20193;-67
2023/01/02 04:26:33;;;;;;;8.17;4.20;;;12.10;99.90;;;;;;5070653;28;20222;-66
2023/01/02 04:29:02;;;;;;;8.50;4.13;;;12.10;99.90;;;;;;5068515;28;20773;-66
2023/01/02 04:31:37;;;;;;;6.87;4.20;;;12.00;99.90;;;;;;5058944;28;20196;-66
2023/01/02 04:34:07;;;;;;;6.83;3.83;;;12.00;99.90;;;;;;5069952;28;20203;-66
2023/01/02 04:36:40;;;;;;;8.57;4.20;;;12.00;99.90;;;;;;5071194;28;20211;-65
2023/01/02 04:39:09;;;;;;;6.57;4.40;;;11.90;99.90;;;;;;5070757;28;20208;-66
2023/01/02 04:41:39;;;;;;;8.40;3.73;;;11.90;99.90;;;;;;5070718;28;20210;-66
2023/01/02 04:44:07;;;;;;;4.17;3.60;;;11.80;99.90;;;;;;5053919;28;20204;-66
2023/01/02 04:46:35;;;;;;;6.73;3.70;;;11.80;99.90;;;;;;5074275;28;20834;-66
2023/01/02 04:49:04;;;;;;;5.43;3.57;;;11.70;99.90;;;;;;5070726;28;20269;-66
2023/01/02 04:51:32;;;;;;;9.83;3.47;;;11.70;99.90;;;;;;5069098;28;20544;-66
2023/01/02 04:54:02;;;;;;;6.87;3.67;;;11.70;99.90;;;;;;5069526;28;20567;-66
2023/01/02 04:56:30;;;;;;;9.37;3.60;;;11.60;99.90;;;;;;5096677;28;20199;-66
2023/01/02 04:58:58;;;;;;;8.30;3.83;;;11.60;99.90;;;;;;5062723;28;20574;-66
2023/01/02 05:01:26;;;;;;;8.03;4.77;;;11.60;99.90;;;;;;5063258;28;20179;-66
2023/01/02 05:03:56;;;;;;;5.17;4.60;;;11.60;99.90;;;;;;5078241;28;20226;-66
2023/01/02 05:06:24;;;;;;;3.67;3.47;;;11.40;99.90;;;;;;5069123;28;20180;-66
2023/01/02 05:08:53;;;;;;;3.57;3.27;;;11.20;99.90;;;;;;5064122;28;20585;-66
2023/01/02 05:11:22;;;;;;;3.20;3.10;;;11.00;99.90;;;;;;5077946;28;20200;-66
2023/01/02 05:13:50;;;;;;;3.53;3.23;;;10.90;99.90;;;;;;5070317;28;20191;-67
2023/01/02 05:16:21;;;;;;;4.03;3.13;;;10.80;99.90;;;;;;5067073;28;20230;-66
2023/01/02 05:18:49;;;;;;;2.93;2.83;;;10.70;99.90;;;;;;5070741;28;20580;-66
2023/01/02 05:24:04;;;;;;;2.43;2.30;;;10.50;99.90;;;;;;5072022;28;20200;-66
2023/01/02 05:26:33;;;;;;;2.33;2.23;;;10.40;99.90;;;;;;5081958;28;20196;-66
2023/01/02 05:29:02;;;;;;;2.93;2.43;;;10.40;99.90;;;;;;5071142;28;20218;-66
2023/01/02 05:31:31;;;;;;;2.20;2.10;;;10.30;99.90;;;;;;5062051;28;20555;-66
2023/01/02 05:33:59;;;;;;;2.40;2.30;;;10.30;99.90;;;;;;5074717;28;20247;-66
2023/01/02 05:36:28;;;;;;;2.57;2.43;;;10.20;99.90;;;;;;5065793;28;20201;-66
2023/01/02 05:38:58;;;;;;;2.77;2.63;;;10.20;99.90;;;;;;5061574;28;20283;-66
2023/01/02 05:41:26;;;;;;;3.23;2.93;;;10.20;99.90;;;;;;5068319;28;20635;-66
2023/01/02 05:43:58;;;;;;;3.40;3.20;;;10.20;99.90;;;;;;5067041;28;20184;-66
2023/01/02 05:46:26;;;;;;;4.30;3.90;;;10.10;99.90;;;;;;5072470;28;20275;-66
2023/01/02 05:48:55;;;;;;;3.73;3.43;;;10.10;99.90;;;;;;5072009;28;20613;-66
2023/01/02 05:51:23;;;;;;;4.93;4.40;;;10.10;99.90;;;;;;5074072;28;20200;-66
2023/01/02 05:53:54;;;;;;;8.87;5.07;;;10.10;99.90;;;;;;5073240;28;20274;-66
2023/01/02 05:56:22;;;;;;;7.40;5.23;;;10.00;99.90;;;;;;5065099;28;20201;-65
2023/01/02 05:58:51;;;;;;;9.60;6.33;;;10.00;99.90;;;;;;5068739;28;20212;-66
2023/01/02 06:01:23;;;;;;;11.20;6.40;;;9.90;99.90;;;;;;5066001;28;20193;-66
2023/01/02 06:03:53;;;;;;;14.20;7.10;;;9.90;99.90;;;;;;5066258;28;20562;-66
2023/01/02 06:06:23;;;;;;;19.57;7.90;;;9.90;99.90;;;;;;5070323;28;20246;-66
2023/01/02 06:08:52;;;;;;;22.50;9.63;;;9.90;99.90;;;;;;5071174;28;20204;-66
2023/01/02 06:11:20;;;;;;;20.57;11.20;;;9.90;99.90;;;;;;5072335;28;20650;-66
2023/01/02 06:13:49;;;;;;;22.43;10.77;;;9.90;99.90;;;;;;5060812;28;20280;-66
2023/01/02 06:16:22;;;;;;;27.10;12.70;;;9.90;99.90;;;;;;5069895;28;20227;-66
2023/01/02 06:18:51;;;;;;;31.33;12.50;;;9.80;99.90;;;;;;5069721;28;20627;-66
2023/01/02 06:21:21;;;;;;;26.87;13.03;;;9.80;99.90;;;;;;5070848;28;20196;-66
2023/01/02 06:23:55;;;;;;;28.43;13.40;;;9.80;99.90;;;;;;5065083;28;20196;-66
2023/01/02 06:26:25;;;;;;;28.37;14.17;;;9.80;99.90;;;;;;5061749;28;20321;-66
2023/01/02 06:29:02;;;;;;;30.67;14.07;;;9.70;99.90;;;;;;5064816;28;20216;-65
2023/01/02 06:31:32;;;;;;;31.23;14.43;;;9.70;99.90;;;;;;5063350;28;20206;-66
2023/01/02 06:34:02;;;;;;;39.70;15.90;;;9.70;99.90;;;;;;5072594;28;20202;-66
2023/01/02 06:36:32;;;;;;;32.07;15.20;;;9.70;99.90;;;;;;5070656;28;20666;-66
2023/01/02 06:39:01;;;;;;;36.07;16.20;;;9.70;99.90;;;;;;5066352;28;20290;-66
2023/01/02 06:41:29;;;;;;;39.53;16.50;;;9.70;99.90;;;;;;5068496;28;20196;-66
2023/01/02 06:43:58;;;;;;;34.97;14.83;;;9.70;99.90;;;;;;5073594;28;20286;-66
2023/01/02 06:46:26;;;;;;;35.13;15.83;;;9.70;99.90;;;;;;5067309;28;20202;-66
2023/01/02 06:48:56;;;;;;;32.23;15.17;;;9.60;99.90;;;;;;5069686;28;20203;-66
2023/01/02 06:51:24;;;;;;;35.03;15.57;;;9.60;99.90;;;;;;5077443;28;20200;-66
2023/01/02 06:53:52;;;;;;;37.20;16.33;;;9.60;99.90;;;;;;5069978;28;20579;-66
2023/01/02 06:56:22;;;;;;;36.37;15.70;;;9.60;99.90;;;;;;5070467;28;20199;-66
2023/01/02 06:58:50;;;;;;;40.20;15.60;;;9.60;99.90;;;;;;5065554;28;20220;-67
2023/01/02 07:01:22;;;;;;;37.73;15.07;;;9.50;99.90;;;;;;5069370;28;20184;-66
2023/01/02 07:03:51;;;;;;;37.97;15.50;;;9.50;99.90;;;;;;5059197;28;20201;-66
2023/01/02 07:06:22;;;;;;;43.77;16.07;;;9.50;99.90;;;;;;5070207;28;20227;-66
2023/01/02 07:08:52;;;;;;;40.17;15.23;;;9.50;99.90;;;;;;5071272;28;20278;-66
2023/01/02 07:11:22;;;;;;;43.03;14.63;;;9.50;99.90;;;;;;5064241;28;20212;-66
2023/01/02 07:13:53;;;;;;;39.73;15.43;;;9.50;99.90;;;;;;5064691;28;20216;-66
2023/01/02 07:16:23;;;;;;;47.80;15.93;;;9.50;99.90;;;;;;5066379;28;20782;-66
2023/01/02 07:18:52;;;;;;;51.23;15.90;;;9.50;99.90;;;;;;5072047;28;20199;-66
2023/01/02 07:21:22;;;;;;;46.93;15.83;;;9.50;99.90;;;;;;5060029;28;20758;-66
2023/01/02 07:23:51;;;;;;;49.67;15.10;;;9.50;99.90;;;;;;5064000;28;20555;-66
2023/01/02 07:26:19;;;;;;;39.90;13.90;;;9.50;99.90;;;;;;5091284;28;20189;-66
2023/01/02 07:28:47;;;;;;;38.77;13.80;;;9.50;99.90;;;;;;5068411;28;20198;-66
2023/01/02 07:31:18;;;;;;;36.80;11.77;;;9.40;99.90;;;;;;5066541;28;20298;-66
2023/01/02 07:33:46;;;;;;;27.83;10.77;;;9.40;99.90;;;;;;5074954;28;20199;-66
2023/01/02 07:36:17;;;;;;;26.20;10.00;;;9.40;99.90;;;;;;5071901;28;20698;-66
2023/01/02 07:38:50;;;;;;;21.80;9.50;;;9.40;99.90;;;;;;5060733;28;20275;-65
2023/01/02 07:41:20;;;;;;;24.57;9.23;;;9.30;99.90;;;;;;5075928;28;20192;-66
2023/01/02 07:43:50;;;;;;;17.63;8.60;;;9.20;99.90;;;;;;5070855;28;20203;-66
2023/01/02 07:46:19;;;;;;;20.80;9.10;;;9.20;99.90;;;;;;5069060;28;20201;-66
2023/01/02 07:48:49;;;;;;;15.27;7.83;;;9.20;99.90;;;;;;5061349;28;20674;-66
2023/01/02 07:51:17;;;;;;;18.03;8.40;;;9.20;99.90;;;;;;5065642;28;20204;-66
2023/01/02 07:53:55;;;;;;;17.30;8.00;;;9.10;99.90;;;;;;5092733;28;20207;-66
2023/01/02 07:56:23;;;;;;;20.97;8.93;;;9.10;99.90;;;;;;5059110;28;20207;-67
2023/01/02 07:58:52;;;;;;;15.33;8.10;;;9.10;99.90;;;;;;5061662;28;20299;-66
2023/01/02 08:01:20;;;;;;;17.80;8.87;;;9.00;99.90;;;;;;5064746;28;20188;-66
2023/01/02 08:03:49;;;;;;;16.10;8.93;;;9.10;99.90;;;;;;5063742;28;20212;-66
2023/01/02 08:06:18;;;;;;;20.83;9.63;;;9.00;99.90;;;;;;5060617;28;20196;-66
2023/01/02 08:08:47;;;;;;;17.53;9.60;;;9.00;99.90;;;;;;5062312;28;20188;-66
2023/01/02 08:11:19;;;;;;;20.10;9.23;;;9.00;99.90;;;;;;5063066;28;20223;-66
2023/01/02 08:13:48;;;;;;;23.80;9.90;;;9.00;99.90;;;;;;5064606;28;20199;-66
2023/01/02 08:16:18;;;;;;;23.50;9.63;;;9.00;99.90;;;;;;5061500;28;20239;-66
2023/01/02 08:18:47;;;;;;;20.77;9.40;;;9.00;99.90;;;;;;5062886;28;20202;-66
2023/01/02 08:21:15;;;;;;;21.73;9.60;;;9.10;99.90;;;;;;5063311;28;20201;-65
2023/01/02 08:23:43;;;;;;;19.63;9.77;;;9.10;99.90;;;;;;5065506;28;20204;-66
2023/01/02 08:26:12;;;;;;;25.67;10.57;;;9.10;99.90;;;;;;5055687;28;20204;-66
2023/01/02 08:28:42;;;;;;;19.33;10.40;;;9.10;99.90;;;;;;5067534;28;20207;-66
2023/01/02 08:31:12;;;;;;;21.17;9.63;;;9.10;99.90;;;;;;5062061;28;20520;-66
2023/01/02 08:33:41;;;;;;;24.57;10.47;;;9.10;99.90;;;;;;5065622;28;20192;-66
2023/01/02 08:36:10;;;;;;;23.43;10.23;;;9.10;99.90;;;;;;5063357;28;20197;-65
2023/01/02 08:38:41;;;;;;;23.20;10.73;;;9.10;99.90;;;;;;5064286;28;20204;-66
2023/01/02 08:41:12;;;;;;;25.67;11.23;;;9.10;99.90;;;;;;5070257;28;20202;-66
2023/01/02 08:43:42;;;;;;;26.83;11.30;;;9.20;99.90;;;;;;5066569;28;20218;-66
2023/01/02 08:46:10;;;;;;;25.10;11.67;;;9.20;99.90;;;;;;5061260;28;20214;-66
2023/01/02 08:48:39;;;;;;;24.00;11.70;;;9.20;99.90;;;;;;5065051;28;20289;-66
2023/01/02 08:51:07;;;;;;;25.33;11.47;;;9.20;99.90;;;;;;5059652;28;20204;-66
2023/01/02 08:53:36;;;;;;;23.03;10.80;;;9.30;99.90;;;;;;5063391;28;20668;-66
2023/01/02 08:56:18;;;;;;;22.27;10.70;;;9.30;99.90;;;;;;5064924;28;20203;-65
2023/01/02 08:58:52;;;;;;;24.37;11.00;;;9.30;99.90;;;;;;5070964;28;20593;-66
2023/01/02 09:01:21;;;;;;;22.90;11.03;;;9.40;99.90;;;;;;5061971;28;20210;-65
2023/01/02 09:03:49;;;;;;;21.70;10.60;;;9.30;99.90;;;;;;5072206;28;20554;-66
2023/01/02 09:06:18;;;;;;;23.97;10.30;;;9.20;99.90;;;;;;5062687;28;20192;-66
2023/01/02 09:08:51;;;;;;;22.23;10.17;;;9.30;99.90;;;;;;5065042;28;20570;-66
2023/01/02 09:11:22;;;;;;;17.53;9.43;;;9.30;99.90;;;;;;5057088;28;20270;-66
2023/01/02 09:13:52;;;;;;;20.83;10.10;;;9.30;99.90;;;;;;5067483;28;20531;-66
2023/01/02 09:16:21;;;;;;;17.97;10.00;;;9.30;99.90;;;;;;5079300;28;20575;-66
2023/01/02 09:18:49;;;;;;;16.67;8.93;;;9.30;99.90;;;;;;5064245;28;20203;-66
2023/01/02 09:21:18;;;;;;;16.93;9.57;;;9.40;99.90;;;;;;5069251;28;20661;-65
2023/01/02 09:23:46;;;;;;;15.33;8.47;;;9.40;99.90;;;;;;5059483;28;20199;-65
2023/01/02 09:26:15;;;;;;;13.03;9.07;;;9.40;99.90;;;;;;5062637;28;20250;-66
2023/01/02 09:28:43;;;;;;;18.20;8.97;;;9.40;99.90;;;;;;5058154;28;20200;-65
2023/01/02 09:31:15;;;;;;;11.73;7.90;;;9.40;99.90;;;;;;5075826;28;20208;-65
2023/01/02 09:33:45;;;;;;;14.63;7.50;;;9.40;99.90;;;;;;5070827;28;20275;-65
2023/01/02 09:36:16;;;;;;;12.40;7.23;;;9.50;99.90;;;;;;5066063;28;20227;-65
2023/01/02 09:38:49;;;;;;;12.00;7.10;;;9.40;99.90;;;;;;5067551;28;20199;-65
2023/01/02 09:41:27;;;;;;;11.93;6.50;;;9.40;99.90;;;;;;5063558;28;20195;-65
2023/01/02 09:43:59;;;;;;;14.40;6.97;;;9.40;99.90;;;;;;5068003;28;20544;-65
2023/01/02 09:46:34;;;;;;;9.43;6.30;;;9.40;99.90;;;;;;5061946;28;20216;-65
2023/01/02 09:49:03;;;;;;;11.07;6.30;;;9.50;99.90;;;;;;5062357;28;20271;-65
2023/01/02 09:51:34;;;;;;;9.50;6.30;;;9.50;99.90;;;;;;5065233;28;20215;-65
2023/01/02 09:54:15;;;;;;;10.50;6.60;;;9.50;99.90;;;;;;5063327;28;20238;-66
2023/01/02 09:56:48;;;;;;;9.90;5.90;;;9.50;99.90;;;;;;5052994;28;20189;-65
2023/01/02 09:59:28;;;;;;;13.50;6.43;;;9.60;99.90;;;;;;5064482;28;20215;-65
2023/01/02 10:02:08;;;;;;;12.80;5.83;;;9.60;99.90;;;;;;5067397;28;20199;-65
2023/01/02 10:04:56;;;;;;;8.20;5.87;;;9.70;99.90;;;;;;5064112;28;20247;-65
2023/01/02 10:07:33;;;;;;;15.90;6.20;;;9.70;99.90;;;;;;5062450;28;20200;-65
2023/01/02 10:10:06;;;;;;;8.93;6.10;;;9.70;99.90;;;;;;5060979;28;20565;-65
2023/01/02 10:12:42;;;;;;;9.57;6.10;;;9.80;99.90;;;;;;5066148;28;20211;-65
2023/01/02 10:15:15;;;;;;;11.57;6.60;;;9.80;99.90;;;;;;5067341;28;20208;-65
2023/01/02 10:17:50;;;;;;;11.50;7.70;;;9.80;99.90;;;;;;5066045;28;20188;-65
2023/01/02 10:20:26;;;;;;;12.50;6.57;;;9.80;99.90;;;;;;5071253;28;20188;-65
2023/01/02 10:23:00;;;;;;;8.87;6.87;;;9.80;99.90;;;;;;5071613;28;20196;-65
2023/01/02 10:25:33;;;;;;;8.40;6.53;;;9.80;99.90;;;;;;5066381;28;20318;-65
2023/01/02 10:28:11;;;;;;;9.80;6.90;;;9.80;99.90;;;;;;5063521;28;20199;-66
2023/01/02 10:30:44;;;;;;;9.10;6.27;;;9.90;99.90;;;;;;5070825;28;20202;-65
2023/01/02 10:33:22;;;;;;;6.77;5.83;;;9.90;99.90;;;;;;5090462;28;20215;-65
2023/01/02 10:35:54;;;;;;;8.07;5.57;;;10.00;99.90;;;;;;5062978;28;20196;-65
2023/01/02 10:38:23;;;;;;;6.97;5.67;;;10.00;99.90;;;;;;5070713;28;20204;-65
2023/01/02 10:40:51;;;;;;;8.67;4.77;;;10.00;99.90;;;;;;5065695;28;20194;-65
2023/01/02 10:43:20;;;;;;;5.47;4.97;;;10.00;99.90;;;;;;5067775;28;20581;-65
2023/01/02 10:45:48;;;;;;;9.50;5.07;;;10.10;99.90;;;;;;5069405;28;20208;-65
2023/01/02 10:48:20;;;;;;;6.40;4.70;;;10.00;99.90;;;;;;5068045;28;20192;-65
2023/01/02 10:50:52;;;;;;;4.87;4.37;;;10.00;99.90;;;;;;5069458;28;20322;-65
2023/01/02 10:53:23;;;;;;;8.03;5.10;;;10.00;99.90;;;;;;5072063;28;20215;-65
2023/01/02 10:55:51;;;;;;;5.97;4.60;;;10.00;99.90;;;;;;5069075;28;20184;-65
2023/01/02 10:58:22;;;;;;;4.60;4.20;;;10.10;99.90;;;;;;5068346;28;20554;-65
2023/01/02 11:00:51;;;;;;;4.10;3.80;;;10.10;99.90;;;;;;5071080;28;20200;-65
2023/01/02 11:03:27;;;;;;;5.43;3.93;;;10.10;99.90;;;;;;5069356;28;20249;-65
2023/01/02 11:05:58;;;;;;;6.27;3.40;;;10.10;99.90;;;;;;5065891;28;20192;-65
2023/01/02 11:08:56;;;;;;;3.60;3.30;;;10.00;99.90;;;;;;5064012;28;20204;-65
2023/01/02 11:11:25;;;;;;;4.80;3.47;;;10.00;99.90;;;;;;5067202;28;20200;-64
2023/01/02 11:13:55;;;;;;;3.57;3.03;;;10.00;99.90;;;;;;5067754;28;20200;-65
2023/01/02 11:16:25;;;;;;;3.50;3.00;;;10.00;99.90;;;;;;5057830;28;20228;-65
2023/01/02 11:18:58;;;;;;;3.70;2.60;;;10.10;99.90;;;;;;5084749;28;20650;-65
2023/01/02 11:21:29;;;;;;;3.13;2.90;;;10.10;99.90;;;;;;5076823;28;20196;-65
2023/01/02 11:24:01;;;;;;;4.67;2.93;;;10.20;99.90;;;;;;5069413;28;20196;-65
2023/01/02 11:26:30;;;;;;;4.83;2.40;;;10.20;99.90;;;;;;5062792;28;20201;-65
2023/01/02 11:29:07;;;;;;;3.97;2.60;;;10.20;99.90;;;;;;5063295;28;20212;-65
2023/01/02 11:31:36;;;;;;;3.33;2.60;;;10.30;99.90;;;;;;5064113;28;20279;-65
2023/01/02 11:34:17;;;;;;;2.50;2.40;;;10.40;99.90;;;;;;5066242;28;20200;-65
2023/01/02 11:37:00;;;;;;;4.63;2.90;;;10.50;99.90;;;;;;5058508;28;20214;-65
2023/01/02 11:39:30;;;;;;;2.80;2.60;;;10.50;99.90;;;;;;5067536;28;20200;-65
2023/01/02 11:45:04;;;;;;;2.50;2.40;;;10.50;99.90;;;;;;5063248;28;20196;-65
2023/01/02 11:47:37;;;;;;;3.20;2.60;;;10.50;99.90;;;;;;5060377;28;20192;-65
2023/01/02 11:50:10;;;;;;;2.33;2.17;;;10.60;99.90;;;;;;5065851;28;20192;-64
2023/01/02 11:52:45;;;;;;;3.97;2.70;;;10.50;99.90;;;;;;5065097;28;20209;-65
2023/01/02 11:55:24;;;;;;;2.47;2.37;;;10.50;99.90;;;;;;5065819;28;20188;-64
2023/01/02 11:57:57;;;;;;;2.63;2.33;;;10.50;99.90;;;;;;5063132;28;20224;-65
2023/01/02 12:00:32;;;;;;;4.27;2.60;;;10.60;99.90;;;;;;5062713;28;20639;-65
2023/01/02 12:03:05;;;;;;;3.57;3.30;;;10.60;99.90;;;;;;5061914;28;21094;-65
2023/01/02 12:05:47;;;;;;;3.17;2.83;;;10.50;99.90;;;;;;5064928;28;20288;-65
2023/01/02 12:08:26;;;;;;;3.57;3.30;;;10.50;99.90;;;;;;5070429;28;20222;-65
2023/01/02 12:11:04;;;;;;;4.20;3.90;;;10.50;99.90;;;;;;5063834;28;20192;-64
2023/01/02 12:13:49;;;;;;;4.17;3.87;;;10.40;99.90;;;;;;5061469;28;20292;-65
2023/01/02 12:16:28;;;;;;;4.20;3.50;;;10.50;99.90;;;;;;5059555;28;20223;-65
2023/01/02 12:19:41;;;;;;;4.50;3.87;;;10.40;99.90;;;;;;5066242;28;20538;-65
2023/01/02 12:22:31;;;;;;;4.47;4.07;;;10.40;99.90;;;;;;4998959;28;20201;-66
2023/01/02 12:25:19;;;;;;;7.93;4.30;;;10.30;99.90;;;;;;5002528;28;20206;-67
2023/01/02 12:27:57;;;;;;;4.03;3.30;;;10.20;99.90;;;;;;5040523;28;20211;-66
2023/01/02 12:30:26;;;;;;;3.03;2.73;;;10.10;99.90;;;;;;5061567;28;20200;-66
2023/01/02 12:33:13;;;;;;;2.60;2.40;;;9.90;99.90;;;;;;5055202;28;20212;-66
2023/01/02 12:35:58;;;;;;;5.30;2.43;;;9.80;99.90;;;;;;5050017;28;20205;-66
2023/01/02 12:38:39;;;;;;;4.00;2.17;;;9.80;99.90;;;;;;5055970;28;20651;-66
2023/01/02 12:41:22;;;;;;;1.80;1.70;;;9.70;99.90;;;;;;5060609;28;20200;-66
2023/01/02 12:44:11;;;;;;;4.27;2.23;;;9.70;99.90;;;;;;5067799;28;20203;-66
2023/01/02 12:47:05;;;;;;;2.13;2.03;;;9.70;99.90;;;;;;5060511;28;20196;-66
2023/01/02 12:49:49;;;;;;;2.37;2.10;;;9.60;99.90;;;;;;5055183;28;20569;-66
2023/01/02 12:52:29;;;;;;;2.03;1.70;;;9.60;99.90;;;;;;5055384;28;20187;-66
2023/01/02 12:55:25;;;;;;;2.63;1.80;;;9.60;99.90;;;;;;5058883;28;20204;-66
2023/01/02 12:57:59;;;;;;;1.77;1.50;;;9.50;99.90;;;;;;5058845;28;20322;-66
2023/01/02 13:00:39;;;;;;;3.70;2.03;;;9.50;99.90;;;;;;5066684;28;20196;-65
2023/01/02 13:03:29;;;;;;;2.63;1.50;;;9.60;99.90;;;;;;5071641;28;20197;-66
2023/01/02 13:06:04;;;;;;;2.10;1.67;;;9.50;99.90;;;;;;5063026;28;20551;-66
2023/01/02 13:08:59;;;;;;;1.63;1.60;;;9.60;99.90;;;;;;5075462;28;20285;-66
2023/01/02 13:11:31;;;;;;;2.03;1.43;;;9.60;99.90;;;;;;5062631;28;20638;-66
2023/01/02 13:14:02;;;;;;;1.50;1.40;;;9.60;99.90;;;;;;5054222;28;20690;-67
2023/01/02 13:16:31;;;;;;;1.87;1.20;;;9.50;99.90;;;;;;5061913;28;20231;-66
2023/01/02 13:19:11;;;;;;;2.70;1.40;;;9.50;99.90;;;;;;5068865;28;20222;-66